Lake Sumner, New Mexico
Current Conditions -  °F | °C
As of 11:56 AM on Friday 28 Nov 2014 (Local Time) from K4MR Reporting Station
Clear Clear  
Wind Chill: 20°   Ceiling: Unl
Heat Index: 20°   Visibility: 10mi
Dew Point: -8°   Wind: 10mph
Humidity: 15%   Direction: 230°SW
Pressure: 30.09"   Gusts: 18mph
Location:  34.3001°N, 104.256°W
Report Text: K4MR 281856Z AUTO 23009G16KT 10SM CLR 20/M08 A3009 RMK AO2 SLP156 T01991078
Loading
Personal Weather Stations






























Interactive Weather Map New forecast layout! Learn more

10-Day Weather Forecast

Advertisements
Track Severe Weather on mobile